sensor_id;sensor_type;location;lat;lon;timestamp;temperature;humidity
65239;SHT30;51827;51.186;6.926;2023-11-19T00:00:16;19.26;57.39
65239;SHT30;51827;51.186;6.926;2023-11-19T00:01:17;19.24;57.43
65239;SHT30;51827;51.186;6.926;2023-11-19T00:02:17;19.24;57.43
65239;SHT30;51827;51.186;6.926;2023-11-19T00:03:17;19.26;57.43
65239;SHT30;51827;51.186;6.926;2023-11-19T00:04:17;19.24;57.46
65239;SHT30;51827;51.186;6.926;2023-11-19T00:05:18;19.23;57.40
65239;SHT30;51827;51.186;6.926;2023-11-19T00:06:18;19.26;57.41
65239;SHT30;51827;51.186;6.926;2023-11-19T00:07:18;19.27;57.40
65239;SHT30;51827;51.186;6.926;2023-11-19T00:08:19;19.24;57.42
65239;SHT30;51827;51.186;6.926;2023-11-19T00:09:19;19.26;57.43
65239;SHT30;51827;51.186;6.926;2023-11-19T00:10:20;19.26;57.43
65239;SHT30;51827;51.186;6.926;2023-11-19T00:11:20;19.24;57.41
65239;SHT30;51827;51.186;6.926;2023-11-19T00:12:20;19.23;57.43
65239;SHT30;51827;51.186;6.926;2023-11-19T00:13:20;19.24;57.42
65239;SHT30;51827;51.186;6.926;2023-11-19T00:14:21;19.27;57.40
65239;SHT30;51827;51.186;6.926;2023-11-19T00:15:21;19.24;57.40
65239;SHT30;51827;51.186;6.926;2023-11-19T00:16:21;19.26;57.39
65239;SHT30;51827;51.186;6.926;2023-11-19T00:17:21;19.24;57.43
65239;SHT30;51827;51.186;6.926;2023-11-19T00:18:22;19.23;57.46
65239;SHT30;51827;51.186;6.926;2023-11-19T00:19:22;19.24;57.44
65239;SHT30;51827;51.186;6.926;2023-11-19T00:20:22;19.24;57.46
65239;SHT30;51827;51.186;6.926;2023-11-19T00:21:22;19.23;57.46
65239;SHT30;51827;51.186;6.926;2023-11-19T00:22:23;19.23;57.46
65239;SHT30;51827;51.186;6.926;2023-11-19T00:23:23;19.24;57.47
65239;SHT30;51827;51.186;6.926;2023-11-19T00:24:23;19.23;57.50
65239;SHT30;51827;51.186;6.926;2023-11-19T00:25:23;19.26;57.49
65239;SHT30;51827;51.186;6.926;2023-11-19T00:26:24;19.23;57.49
65239;SHT30;51827;51.186;6.926;2023-11-19T00:27:24;19.26;57.49
65239;SHT30;51827;51.186;6.926;2023-11-19T00:28:24;19.24;57.47
65239;SHT30;51827;51.186;6.926;2023-11-19T00:29:24;19.23;57.51
65239;SHT30;51827;51.186;6.926;2023-11-19T00:30:25;19.26;57.49
65239;SHT30;51827;51.186;6.926;2023-11-19T00:31:25;19.26;57.46
65239;SHT30;51827;51.186;6.926;2023-11-19T00:32:25;19.24;57.46
65239;SHT30;51827;51.186;6.926;2023-11-19T00:33:26;19.24;57.44
65239;SHT30;51827;51.186;6.926;2023-11-19T00:34:26;19.23;57.46
65239;SHT30;51827;51.186;6.926;2023-11-19T00:35:26;19.23;57.46
65239;SHT30;51827;51.186;6.926;2023-11-19T00:36:26;19.24;57.44
65239;SHT30;51827;51.186;6.926;2023-11-19T00:37:26;19.27;57.49
65239;SHT30;51827;51.186;6.926;2023-11-19T00:38:27;19.24;57.45
65239;SHT30;51827;51.186;6.926;2023-11-19T00:39:27;19.26;57.47
65239;SHT30;51827;51.186;6.926;2023-11-19T00:40:27;19.24;57.51
65239;SHT30;51827;51.186;6.926;2023-11-19T00:41:27;19.27;57.71
65239;SHT30;51827;51.186;6.926;2023-11-19T00:42:28;19.26;57.84
65239;SHT30;51827;51.186;6.926;2023-11-19T00:43:28;19.26;57.93
65239;SHT30;51827;51.186;6.926;2023-11-19T00:44:28;19.26;57.98
65239;SHT30;51827;51.186;6.926;2023-11-19T00:45:28;19.24;58.08
65239;SHT30;51827;51.186;6.926;2023-11-19T00:46:29;19.24;58.04
65239;SHT30;51827;51.186;6.926;2023-11-19T00:47:29;19.26;58.07
65239;SHT30;51827;51.186;6.926;2023-11-19T00:48:29;19.26;58.06
65239;SHT30;51827;51.186;6.926;2023-11-19T00:49:29;19.27;58.07
65239;SHT30;51827;51.186;6.926;2023-11-19T00:50:30;19.29;58.06
65239;SHT30;51827;51.186;6.926;2023-11-19T00:51:30;19.29;58.09
65239;SHT30;51827;51.186;6.926;2023-11-19T00:52:30;19.26;58.08
65239;SHT30;51827;51.186;6.926;2023-11-19T00:53:30;19.27;58.09
65239;SHT30;51827;51.186;6.926;2023-11-19T00:54:31;19.27;58.03
65239;SHT30;51827;51.186;6.926;2023-11-19T00:55:31;19.26;58.06
65239;SHT30;51827;51.186;6.926;2023-11-19T00:56:31;19.29;58.08
65239;SHT30;51827;51.186;6.926;2023-11-19T00:57:32;19.27;58.09
65239;SHT30;51827;51.186;6.926;2023-11-19T00:58:32;19.27;58.06
65239;SHT30;51827;51.186;6.926;2023-11-19T00:59:32;19.30;58.03
65239;SHT30;51827;51.186;6.926;2023-11-19T01:00:32;19.29;58.05
65239;SHT30;51827;51.186;6.926;2023-11-19T01:01:33;19.30;58.07
65239;SHT30;51827;51.186;6.926;2023-11-19T01:02:33;19.29;58.03
65239;SHT30;51827;51.186;6.926;2023-11-19T01:03:33;19.30;58.03
65239;SHT30;51827;51.186;6.926;2023-11-19T01:04:34;19.29;58.07
65239;SHT30;51827;51.186;6.926;2023-11-19T01:05:35;19.29;58.06
65239;SHT30;51827;51.186;6.926;2023-11-19T01:06:35;19.30;58.09
65239;SHT30;51827;51.186;6.926;2023-11-19T01:07:35;19.30;58.08
65239;SHT30;51827;51.186;6.926;2023-11-19T01:08:35;19.29;58.08
65239;SHT30;51827;51.186;6.926;2023-11-19T01:09:36;19.29;58.04
65239;SHT30;51827;51.186;6.926;2023-11-19T01:10:39;19.29;58.02
65239;SHT30;51827;51.186;6.926;2023-11-19T01:11:39;19.30;58.09
65239;SHT30;51827;51.186;6.926;2023-11-19T01:12:39;19.29;58.05
65239;SHT30;51827;51.186;6.926;2023-11-19T01:13:40;19.29;58.05
65239;SHT30;51827;51.186;6.926;2023-11-19T01:14:40;19.30;58.05
65239;SHT30;51827;51.186;6.926;2023-11-19T01:15:40;19.33;58.01
65239;SHT30;51827;51.186;6.926;2023-11-19T01:16:40;19.32;58.00
65239;SHT30;51827;51.186;6.926;2023-11-19T01:17:41;19.32;58.00
65239;SHT30;51827;51.186;6.926;2023-11-19T01:18:41;19.30;58.01
65239;SHT30;51827;51.186;6.926;2023-11-19T01:19:41;19.30;57.97
65239;SHT30;51827;51.186;6.926;2023-11-19T01:20:42;19.30;58.00
65239;SHT30;51827;51.186;6.926;2023-11-19T01:21:42;19.30;58.00
65239;SHT30;51827;51.186;6.926;2023-11-19T01:22:42;19.33;58.01
65239;SHT30;51827;51.186;6.926;2023-11-19T01:23:42;19.32;58.03
65239;SHT30;51827;51.186;6.926;2023-11-19T01:24:43;19.32;57.99
65239;SHT30;51827;51.186;6.926;2023-11-19T01:25:43;19.32;58.03
65239;SHT30;51827;51.186;6.926;2023-11-19T01:26:43;19.32;57.99
65239;SHT30;51827;51.186;6.926;2023-11-19T01:27:44;19.32;57.99
65239;SHT30;51827;51.186;6.926;2023-11-19T01:28:44;19.32;58.00
65239;SHT30;51827;51.186;6.926;2023-11-19T01:29:44;19.33;58.00
65239;SHT30;51827;51.186;6.926;2023-11-19T01:30:45;19.32;58.04
65239;SHT30;51827;51.186;6.926;2023-11-19T01:31:46;19.30;58.01
65239;SHT30;51827;51.186;6.926;2023-11-19T01:32:46;19.33;58.04
65239;SHT30;51827;51.186;6.926;2023-11-19T01:33:46;19.32;58.02
65239;SHT30;51827;51.186;6.926;2023-11-19T01:34:46;19.33;58.04
65239;SHT30;51827;51.186;6.926;2023-11-19T01:35:47;19.32;58.03
65239;SHT30;51827;51.186;6.926;2023-11-19T01:36:47;19.33;57.99
65239;SHT30;51827;51.186;6.926;2023-11-19T01:37:47;19.32;58.03
65239;SHT30;51827;51.186;6.926;2023-11-19T01:38:47;19.33;58.02
65239;SHT30;51827;51.186;6.926;2023-11-19T01:39:48;19.30;58.02
65239;SHT30;51827;51.186;6.926;2023-11-19T01:40:48;19.30;58.07
65239;SHT30;51827;51.186;6.926;2023-11-19T01:41:48;19.33;58.03
65239;SHT30;51827;51.186;6.926;2023-11-19T01:42:48;19.33;58.02
65239;SHT30;51827;51.186;6.926;2023-11-19T01:43:49;19.32;58.02
65239;SHT30;51827;51.186;6.926;2023-11-19T01:44:58;19.36;58.02
65239;SHT30;51827;51.186;6.926;2023-11-19T01:45:59;19.34;58.00
65239;SHT30;51827;51.186;6.926;2023-11-19T01:46:59;19.33;58.02
65239;SHT30;51827;51.186;6.926;2023-11-19T01:48:02;19.32;58.07
65239;SHT30;51827;51.186;6.926;2023-11-19T01:49:03;19.33;58.05
65239;SHT30;51827;51.186;6.926;2023-11-19T01:50:07;19.33;58.07
65239;SHT30;51827;51.186;6.926;2023-11-19T01:51:08;19.30;58.10
65239;SHT30;51827;51.186;6.926;2023-11-19T01:52:09;19.32;58.07
65239;SHT30;51827;51.186;6.926;2023-11-19T01:53:09;19.32;58.05
65239;SHT30;51827;51.186;6.926;2023-11-19T01:54:09;19.32;58.10
65239;SHT30;51827;51.186;6.926;2023-11-19T01:55:10;19.33;58.12
65239;SHT30;51827;51.186;6.926;2023-11-19T01:56:13;19.32;58.14
65239;SHT30;51827;51.186;6.926;2023-11-19T01:57:14;19.32;58.18
65239;SHT30;51827;51.186;6.926;2023-11-19T01:58:15;19.30;58.18
65239;SHT30;51827;51.186;6.926;2023-11-19T01:59:16;19.33;58.18
65239;SHT30;51827;51.186;6.926;2023-11-19T02:00:18;19.34;58.20
65239;SHT30;51827;51.186;6.926;2023-11-19T02:01:19;19.33;58.16
65239;SHT30;51827;51.186;6.926;2023-11-19T02:02:19;19.32;58.22
65239;SHT30;51827;51.186;6.926;2023-11-19T02:03:20;19.33;58.22
65239;SHT30;51827;51.186;6.926;2023-11-19T02:04:21;19.32;58.20
65239;SHT30;51827;51.186;6.926;2023-11-19T02:05:21;19.30;58.23
65239;SHT30;51827;51.186;6.926;2023-11-19T02:06:22;19.32;58.25
65239;SHT30;51827;51.186;6.926;2023-11-19T02:07:23;19.30;58.31
65239;SHT30;51827;51.186;6.926;2023-11-19T02:08:24;19.32;58.25
65239;SHT30;51827;51.186;6.926;2023-11-19T02:09:25;19.30;58.32
65239;SHT30;51827;51.186;6.926;2023-11-19T02:10:25;19.32;58.33
65239;SHT30;51827;51.186;6.926;2023-11-19T02:11:25;19.30;58.31
65239;SHT30;51827;51.186;6.926;2023-11-19T02:12:26;19.32;58.33
65239;SHT30;51827;51.186;6.926;2023-11-19T02:13:27;19.33;58.31
65239;SHT30;51827;51.186;6.926;2023-11-19T02:14:27;19.30;58.30
65239;SHT30;51827;51.186;6.926;2023-11-19T02:15:27;19.33;58.32
65239;SHT30;51827;51.186;6.926;2023-11-19T02:16:28;19.33;58.36
65239;SHT30;51827;51.186;6.926;2023-11-19T02:17:31;19.30;58.36
65239;SHT30;51827;51.186;6.926;2023-11-19T02:18:31;19.33;58.34
65239;SHT30;51827;51.186;6.926;2023-11-19T02:19:31;19.30;58.35
65239;SHT30;51827;51.186;6.926;2023-11-19T02:20:32;19.29;58.38
65239;SHT30;51827;51.186;6.926;2023-11-19T02:21:32;19.29;58.38
65239;SHT30;51827;51.186;6.926;2023-11-19T02:22:32;19.32;58.35
65239;SHT30;51827;51.186;6.926;2023-11-19T02:23:32;19.32;58.35
65239;SHT30;51827;51.186;6.926;2023-11-19T02:24:33;19.32;58.35
65239;SHT30;51827;51.186;6.926;2023-11-19T02:25:33;19.33;58.41
65239;SHT30;51827;51.186;6.926;2023-11-19T02:26:57;19.32;58.39
65239;SHT30;51827;51.186;6.926;2023-11-19T02:28:00;19.30;58.37
65239;SHT30;51827;51.186;6.926;2023-11-19T02:29:01;19.33;58.40
65239;SHT30;51827;51.186;6.926;2023-11-19T02:30:01;19.34;58.41
65239;SHT30;51827;51.186;6.926;2023-11-19T02:31:02;19.32;58.46
65239;SHT30;51827;51.186;6.926;2023-11-19T02:32:02;19.33;58.43
65239;SHT30;51827;51.186;6.926;2023-11-19T02:33:03;19.33;58.45
65239;SHT30;51827;51.186;6.926;2023-11-19T02:34:03;19.32;58.44
65239;SHT30;51827;51.186;6.926;2023-11-19T02:35:03;19.32;58.46
65239;SHT30;51827;51.186;6.926;2023-11-19T02:36:08;19.33;58.49
65239;SHT30;51827;51.186;6.926;2023-11-19T02:37:08;19.30;58.48
65239;SHT30;51827;51.186;6.926;2023-11-19T02:38:08;19.32;58.49
65239;SHT30;51827;51.186;6.926;2023-11-19T02:39:09;19.34;58.50
65239;SHT30;51827;51.186;6.926;2023-11-19T02:40:09;19.33;58.50
65239;SHT30;51827;51.186;6.926;2023-11-19T02:41:09;19.33;58.50
65239;SHT30;51827;51.186;6.926;2023-11-19T02:42:10;19.36;58.51
65239;SHT30;51827;51.186;6.926;2023-11-19T02:43:10;19.34;58.55
65239;SHT30;51827;51.186;6.926;2023-11-19T02:44:10;19.33;58.51
65239;SHT30;51827;51.186;6.926;2023-11-19T02:45:10;19.33;58.56
65239;SHT30;51827;51.186;6.926;2023-11-19T02:46:11;19.33;58.58
65239;SHT30;51827;51.186;6.926;2023-11-19T02:47:11;19.33;58.56
65239;SHT30;51827;51.186;6.926;2023-11-19T02:48:12;19.34;58.62
65239;SHT30;51827;51.186;6.926;2023-11-19T02:49:12;19.34;58.59
65239;SHT30;51827;51.186;6.926;2023-11-19T02:50:12;19.34;58.56
65239;SHT30;51827;51.186;6.926;2023-11-19T02:51:12;19.34;58.59
65239;SHT30;51827;51.186;6.926;2023-11-19T02:52:13;19.33;58.60
65239;SHT30;51827;51.186;6.926;2023-11-19T02:53:13;19.36;58.58
65239;SHT30;51827;51.186;6.926;2023-11-19T02:54:13;19.34;58.57
65239;SHT30;51827;51.186;6.926;2023-11-19T02:55:14;19.36;58.63
65239;SHT30;51827;51.186;6.926;2023-11-19T02:56:14;19.34;58.62
65239;SHT30;51827;51.186;6.926;2023-11-19T02:57:14;19.34;58.66
65239;SHT30;51827;51.186;6.926;2023-11-19T02:58:14;19.36;58.67
65239;SHT30;51827;51.186;6.926;2023-11-19T02:59:15;19.34;58.61
65239;SHT30;51827;51.186;6.926;2023-11-19T03:00:19;19.33;58.66
65239;SHT30;51827;51.186;6.926;2023-11-19T03:01:23;19.36;58.68
65239;SHT30;51827;51.186;6.926;2023-11-19T03:02:24;19.39;58.68
65239;SHT30;51827;51.186;6.926;2023-11-19T03:03:25;19.34;58.68
65239;SHT30;51827;51.186;6.926;2023-11-19T03:04:25;19.36;58.71
65239;SHT30;51827;51.186;6.926;2023-11-19T03:05:26;19.33;58.73
65239;SHT30;51827;51.186;6.926;2023-11-19T03:06:27;19.36;58.74
65239;SHT30;51827;51.186;6.926;2023-11-19T03:07:27;19.36;58.73
65239;SHT30;51827;51.186;6.926;2023-11-19T03:08:27;19.37;58.77
65239;SHT30;51827;51.186;6.926;2023-11-19T03:09:28;19.37;58.78
65239;SHT30;51827;51.186;6.926;2023-11-19T03:10:28;19.37;58.75
65239;SHT30;51827;51.186;6.926;2023-11-19T03:11:28;19.36;58.74
65239;SHT30;51827;51.186;6.926;2023-11-19T03:12:29;19.34;58.73
65239;SHT30;51827;51.186;6.926;2023-11-19T03:13:29;19.36;58.76
65239;SHT30;51827;51.186;6.926;2023-11-19T03:14:29;19.34;58.78
65239;SHT30;51827;51.186;6.926;2023-11-19T03:15:29;19.36;58.79
65239;SHT30;51827;51.186;6.926;2023-11-19T03:16:29;19.36;58.81
65239;SHT30;51827;51.186;6.926;2023-11-19T03:17:30;19.36;58.82
65239;SHT30;51827;51.186;6.926;2023-11-19T03:18:30;19.37;58.81
65239;SHT30;51827;51.186;6.926;2023-11-19T03:19:30;19.34;58.80
65239;SHT30;51827;51.186;6.926;2023-11-19T03:20:31;19.36;58.86
65239;SHT30;51827;51.186;6.926;2023-11-19T03:21:31;19.37;58.89
65239;SHT30;51827;51.186;6.926;2023-11-19T03:22:32;19.39;58.85
65239;SHT30;51827;51.186;6.926;2023-11-19T03:23:32;19.34;58.85
65239;SHT30;51827;51.186;6.926;2023-11-19T03:24:32;19.36;58.89
65239;SHT30;51827;51.186;6.926;2023-11-19T03:25:33;19.37;58.88
65239;SHT30;51827;51.186;6.926;2023-11-19T03:26:33;19.36;58.90
65239;SHT30;51827;51.186;6.926;2023-11-19T03:27:37;19.37;58.87
65239;SHT30;51827;51.186;6.926;2023-11-19T03:28:37;19.34;58.88
65239;SHT30;51827;51.186;6.926;2023-11-19T03:29:37;19.39;58.92
65239;SHT30;51827;51.186;6.926;2023-11-19T03:30:37;19.37;58.92
65239;SHT30;51827;51.186;6.926;2023-11-19T03:31:42;19.36;58.94
65239;SHT30;51827;51.186;6.926;2023-11-19T03:32:42;19.36;58.94
65239;SHT30;51827;51.186;6.926;2023-11-19T03:33:42;19.39;58.90
65239;SHT30;51827;51.186;6.926;2023-11-19T03:34:42;19.37;58.91
65239;SHT30;51827;51.186;6.926;2023-11-19T03:35:43;19.36;58.94
65239;SHT30;51827;51.186;6.926;2023-11-19T03:36:43;19.34;58.91
65239;SHT30;51827;51.186;6.926;2023-11-19T03:37:43;19.37;58.96
65239;SHT30;51827;51.186;6.926;2023-11-19T03:38:43;19.39;58.97
65239;SHT30;51827;51.186;6.926;2023-11-19T03:39:43;19.36;58.91
65239;SHT30;51827;51.186;6.926;2023-11-19T03:40:44;19.36;58.94
65239;SHT30;51827;51.186;6.926;2023-11-19T03:41:47;19.37;58.96
65239;SHT30;51827;51.186;6.926;2023-11-19T03:42:47;19.40;58.97
65239;SHT30;51827;51.186;6.926;2023-11-19T03:43:48;19.36;58.97
65239;SHT30;51827;51.186;6.926;2023-11-19T03:44:48;19.37;58.99
65239;SHT30;51827;51.186;6.926;2023-11-19T03:45:48;19.37;58.95
65239;SHT30;51827;51.186;6.926;2023-11-19T03:46:48;19.39;58.98
65239;SHT30;51827;51.186;6.926;2023-11-19T03:47:49;19.37;58.98
65239;SHT30;51827;51.186;6.926;2023-11-19T03:48:50;19.39;58.99
65239;SHT30;51827;51.186;6.926;2023-11-19T03:49:51;19.39;58.97
65239;SHT30;51827;51.186;6.926;2023-11-19T03:50:51;19.37;58.98
65239;SHT30;51827;51.186;6.926;2023-11-19T03:51:51;19.40;58.97
65239;SHT30;51827;51.186;6.926;2023-11-19T03:52:52;19.37;59.00
65239;SHT30;51827;51.186;6.926;2023-11-19T03:53:52;19.40;59.05
65239;SHT30;51827;51.186;6.926;2023-11-19T03:54:52;19.37;59.02
65239;SHT30;51827;51.186;6.926;2023-11-19T03:55:52;19.37;59.02
65239;SHT30;51827;51.186;6.926;2023-11-19T03:56:53;19.39;59.04
65239;SHT30;51827;51.186;6.926;2023-11-19T03:57:53;19.40;59.05
65239;SHT30;51827;51.186;6.926;2023-11-19T03:58:53;19.39;58.99
65239;SHT30;51827;51.186;6.926;2023-11-19T03:59:53;19.39;59.02
65239;SHT30;51827;51.186;6.926;2023-11-19T04:00:54;19.40;59.03
65239;SHT30;51827;51.186;6.926;2023-11-19T04:01:54;19.39;59.04
65239;SHT30;51827;51.186;6.926;2023-11-19T04:02:54;19.39;59.07
65239;SHT30;51827;51.186;6.926;2023-11-19T04:03:54;19.40;59.09
65239;SHT30;51827;51.186;6.926;2023-11-19T04:04:55;19.37;59.10
65239;SHT30;51827;51.186;6.926;2023-11-19T04:05:55;19.39;59.06
65239;SHT30;51827;51.186;6.926;2023-11-19T04:06:56;19.37;59.07
65239;SHT30;51827;51.186;6.926;2023-11-19T04:07:56;19.39;59.02
65239;SHT30;51827;51.186;6.926;2023-11-19T04:08:56;19.36;59.05
65239;SHT30;51827;51.186;6.926;2023-11-19T04:09:57;19.36;59.03
65239;SHT30;51827;51.186;6.926;2023-11-19T04:10:57;19.39;59.05
65239;SHT30;51827;51.186;6.926;2023-11-19T04:11:57;19.37;59.08
65239;SHT30;51827;51.186;6.926;2023-11-19T04:12:57;19.37;59.04
65239;SHT30;51827;51.186;6.926;2023-11-19T04:13:57;19.37;59.10
65239;SHT30;51827;51.186;6.926;2023-11-19T04:14:58;19.37;59.08
65239;SHT30;51827;51.186;6.926;2023-11-19T04:15:58;19.37;59.10
65239;SHT30;51827;51.186;6.926;2023-11-19T04:16:58;19.36;59.07
65239;SHT30;51827;51.186;6.926;2023-11-19T04:17:58;19.39;59.07
65239;SHT30;51827;51.186;6.926;2023-11-19T04:18:59;19.36;59.04
65239;SHT30;51827;51.186;6.926;2023-11-19T04:19:59;19.37;59.04
65239;SHT30;51827;51.186;6.926;2023-11-19T04:20:59;19.37;59.05
65239;SHT30;51827;51.186;6.926;2023-11-19T04:21:59;19.37;59.03
65239;SHT30;51827;51.186;6.926;2023-11-19T04:23:00;19.39;59.00
65239;SHT30;51827;51.186;6.926;2023-11-19T04:24:00;19.39;59.05
65239;SHT30;51827;51.186;6.926;2023-11-19T04:25:00;19.37;59.04
65239;SHT30;51827;51.186;6.926;2023-11-19T04:26:04;19.36;59.06
65239;SHT30;51827;51.186;6.926;2023-11-19T04:27:04;19.37;59.01
65239;SHT30;51827;51.186;6.926;2023-11-19T04:28:04;19.36;59.04
65239;SHT30;51827;51.186;6.926;2023-11-19T04:29:05;19.39;59.01
65239;SHT30;51827;51.186;6.926;2023-11-19T04:30:06;19.37;59.03
65239;SHT30;51827;51.186;6.926;2023-11-19T04:31:06;19.40;59.03
65239;SHT30;51827;51.186;6.926;2023-11-19T04:32:06;19.39;59.06
65239;SHT30;51827;51.186;6.926;2023-11-19T04:33:06;19.36;59.07
65239;SHT30;51827;51.186;6.926;2023-11-19T04:34:07;19.36;59.01
65239;SHT30;51827;51.186;6.926;2023-11-19T04:35:07;19.37;58.99
65239;SHT30;51827;51.186;6.926;2023-11-19T04:36:09;19.36;59.03
65239;SHT30;51827;51.186;6.926;2023-11-19T04:37:09;19.36;59.00
65239;SHT30;51827;51.186;6.926;2023-11-19T04:38:09;19.36;59.03
65239;SHT30;51827;51.186;6.926;2023-11-19T04:39:09;19.36;58.99
65239;SHT30;51827;51.186;6.926;2023-11-19T04:40:10;19.37;58.96
65239;SHT30;51827;51.186;6.926;2023-11-19T04:41:10;19.37;58.97
65239;SHT30;51827;51.186;6.926;2023-11-19T04:42:10;19.39;58.99
65239;SHT30;51827;51.186;6.926;2023-11-19T04:43:11;19.37;59.00
65239;SHT30;51827;51.186;6.926;2023-11-19T04:44:11;19.34;58.99
65239;SHT30;51827;51.186;6.926;2023-11-19T04:45:11;19.39;59.00
65239;SHT30;51827;51.186;6.926;2023-11-19T04:46:11;19.36;58.96
65239;SHT30;51827;51.186;6.926;2023-11-19T04:47:12;19.37;59.01
65239;SHT30;51827;51.186;6.926;2023-11-19T04:48:12;19.39;58.96
65239;SHT30;51827;51.186;6.926;2023-11-19T04:49:13;19.36;58.95
65239;SHT30;51827;51.186;6.926;2023-11-19T04:50:13;19.37;58.95
65239;SHT30;51827;51.186;6.926;2023-11-19T04:51:13;19.36;59.00
65239;SHT30;51827;51.186;6.926;2023-11-19T04:52:14;19.36;58.94
65239;SHT30;51827;51.186;6.926;2023-11-19T04:53:14;19.37;58.97
65239;SHT30;51827;51.186;6.926;2023-11-19T04:54:14;19.36;58.97
65239;SHT30;51827;51.186;6.926;2023-11-19T04:55:14;19.37;58.96
65239;SHT30;51827;51.186;6.926;2023-11-19T04:56:15;19.37;58.92
65239;SHT30;51827;51.186;6.926;2023-11-19T04:57:15;19.37;58.96
65239;SHT30;51827;51.186;6.926;2023-11-19T04:58:15;19.39;58.95
65239;SHT30;51827;51.186;6.926;2023-11-19T04:59:15;19.37;58.96
65239;SHT30;51827;51.186;6.926;2023-11-19T05:00:16;19.36;58.95
65239;SHT30;51827;51.186;6.926;2023-11-19T05:01:16;19.37;58.95
65239;SHT30;51827;51.186;6.926;2023-11-19T05:02:16;19.37;58.96
65239;SHT30;51827;51.186;6.926;2023-11-19T05:03:16;19.40;58.92
65239;SHT30;51827;51.186;6.926;2023-11-19T05:04:17;19.36;58.94
65239;SHT30;51827;51.186;6.926;2023-11-19T05:05:17;19.39;58.90
65239;SHT30;51827;51.186;6.926;2023-11-19T05:06:18;19.37;58.91
65239;SHT30;51827;51.186;6.926;2023-11-19T05:07:18;19.39;58.94
65239;SHT30;51827;51.186;6.926;2023-11-19T05:08:18;19.37;58.90
65239;SHT30;51827;51.186;6.926;2023-11-19T05:09:18;19.40;58.88
65239;SHT30;51827;51.186;6.926;2023-11-19T05:10:19;19.37;58.90
65239;SHT30;51827;51.186;6.926;2023-11-19T05:11:19;19.40;58.87
65239;SHT30;51827;51.186;6.926;2023-11-19T05:12:19;19.37;58.87
65239;SHT30;51827;51.186;6.926;2023-11-19T05:13:19;19.36;58.87
65239;SHT30;51827;51.186;6.926;2023-11-19T05:14:20;19.37;58.87
65239;SHT30;51827;51.186;6.926;2023-11-19T05:15:20;19.37;58.87
65239;SHT30;51827;51.186;6.926;2023-11-19T05:16:20;19.37;58.87
65239;SHT30;51827;51.186;6.926;2023-11-19T05:17:20;19.39;58.83
65239;SHT30;51827;51.186;6.926;2023-11-19T05:18:21;19.37;58.88
65239;SHT30;51827;51.186;6.926;2023-11-19T05:19:21;19.39;58.93
65239;SHT30;51827;51.186;6.926;2023-11-19T05:20:21;19.37;58.87
65239;SHT30;51827;51.186;6.926;2023-11-19T05:21:21;19.40;58.87
65239;SHT30;51827;51.186;6.926;2023-11-19T05:22:22;19.40;58.85
65239;SHT30;51827;51.186;6.926;2023-11-19T05:23:22;19.39;58.85
65239;SHT30;51827;51.186;6.926;2023-11-19T05:24:22;19.39;58.85
65239;SHT30;51827;51.186;6.926;2023-11-19T05:25:22;19.39;58.86
65239;SHT30;51827;51.186;6.926;2023-11-19T05:26:23;19.37;58.85
65239;SHT30;51827;51.186;6.926;2023-11-19T05:27:24;19.42;58.81
65239;SHT30;51827;51.186;6.926;2023-11-19T05:28:24;19.37;58.86
65239;SHT30;51827;51.186;6.926;2023-11-19T05:29:24;19.39;58.83
65239;SHT30;51827;51.186;6.926;2023-11-19T05:30:24;19.39;58.83
65239;SHT30;51827;51.186;6.926;2023-11-19T05:31:25;19.37;58.84
65239;SHT30;51827;51.186;6.926;2023-11-19T05:32:25;19.37;58.81
65239;SHT30;51827;51.186;6.926;2023-11-19T05:33:25;19.37;58.81
65239;SHT30;51827;51.186;6.926;2023-11-19T05:34:27;19.39;58.84
65239;SHT30;51827;51.186;6.926;2023-11-19T05:35:27;19.39;58.80
65239;SHT30;51827;51.186;6.926;2023-11-19T05:36:27;19.40;58.79
65239;SHT30;51827;51.186;6.926;2023-11-19T05:37:27;19.37;58.76
65239;SHT30;51827;51.186;6.926;2023-11-19T05:38:28;19.40;58.73
65239;SHT30;51827;51.186;6.926;2023-11-19T05:39:28;19.37;58.75
65239;SHT30;51827;51.186;6.926;2023-11-19T05:40:28;19.37;58.76
65239;SHT30;51827;51.186;6.926;2023-11-19T05:41:28;19.40;58.76
65239;SHT30;51827;51.186;6.926;2023-11-19T05:42:29;19.37;58.74
65239;SHT30;51827;51.186;6.926;2023-11-19T05:43:29;19.39;58.76
65239;SHT30;51827;51.186;6.926;2023-11-19T05:44:29;19.37;58.70
65239;SHT30;51827;51.186;6.926;2023-11-19T05:45:29;19.39;58.71
65239;SHT30;51827;51.186;6.926;2023-11-19T05:46:30;19.42;58.71
65239;SHT30;51827;51.186;6.926;2023-11-19T05:47:30;19.39;58.73
65239;SHT30;51827;51.186;6.926;2023-11-19T05:48:30;19.40;58.75
65239;SHT30;51827;51.186;6.926;2023-11-19T05:49:30;19.42;58.71
65239;SHT30;51827;51.186;6.926;2023-11-19T05:50:31;19.42;58.68
65239;SHT30;51827;51.186;6.926;2023-11-19T05:51:31;19.42;58.67
65239;SHT30;51827;51.186;6.926;2023-11-19T05:52:31;19.40;58.71
65239;SHT30;51827;51.186;6.926;2023-11-19T05:53:31;19.39;58.70
65239;SHT30;51827;51.186;6.926;2023-11-19T05:54:32;19.40;58.70
65239;SHT30;51827;51.186;6.926;2023-11-19T05:55:35;19.39;58.68
65239;SHT30;51827;51.186;6.926;2023-11-19T05:56:35;19.39;58.68
65239;SHT30;51827;51.186;6.926;2023-11-19T05:57:36;19.37;58.68
65239;SHT30;51827;51.186;6.926;2023-11-19T05:58:37;19.39;58.68
65239;SHT30;51827;51.186;6.926;2023-11-19T05:59:37;19.40;58.68
65239;SHT30;51827;51.186;6.926;2023-11-19T06:00:38;19.39;58.64
65239;SHT30;51827;51.186;6.926;2023-11-19T06:01:39;19.39;58.67
65239;SHT30;51827;51.186;6.926;2023-11-19T06:02:39;19.39;58.67
65239;SHT30;51827;51.186;6.926;2023-11-19T06:03:39;19.39;58.64
65239;SHT30;51827;51.186;6.926;2023-11-19T06:04:39;19.40;58.61
65239;SHT30;51827;51.186;6.926;2023-11-19T06:05:40;19.39;58.65
65239;SHT30;51827;51.186;6.926;2023-11-19T06:06:40;19.39;58.62
65239;SHT30;51827;51.186;6.926;2023-11-19T06:07:40;19.39;58.65
65239;SHT30;51827;51.186;6.926;2023-11-19T06:08:40;19.40;58.60
65239;SHT30;51827;51.186;6.926;2023-11-19T06:09:41;19.39;58.62
65239;SHT30;51827;51.186;6.926;2023-11-19T06:10:41;19.39;58.62
65239;SHT30;51827;51.186;6.926;2023-11-19T06:11:42;19.40;58.67
65239;SHT30;51827;51.186;6.926;2023-11-19T06:12:42;19.37;58.61
65239;SHT30;51827;51.186;6.926;2023-11-19T06:13:42;19.39;58.61
65239;SHT30;51827;51.186;6.926;2023-11-19T06:14:42;19.39;58.59
65239;SHT30;51827;51.186;6.926;2023-11-19T06:15:43;19.39;58.57
65239;SHT30;51827;51.186;6.926;2023-11-19T06:16:43;19.40;58.61
65239;SHT30;51827;51.186;6.926;2023-11-19T06:17:43;19.39;58.56
65239;SHT30;51827;51.186;6.926;2023-11-19T06:18:43;19.39;58.59
65239;SHT30;51827;51.186;6.926;2023-11-19T06:19:44;19.39;58.58
65239;SHT30;51827;51.186;6.926;2023-11-19T06:20:44;19.42;58.62
65239;SHT30;51827;51.186;6.926;2023-11-19T06:21:44;19.39;58.61